createdAt,value
2023-03-18T00:01:06.939Z,37.13
2023-03-18T00:03:36.914Z,36.45
2023-03-18T00:06:08.275Z,38.80
2023-03-18T00:08:37.142Z,45.30
2023-03-18T00:11:05.486Z,42.05
2023-03-18T00:13:34.056Z,36.63
2023-03-18T00:16:03.666Z,31.55
2023-03-18T00:18:33.690Z,34.00
2023-03-18T00:21:01.424Z,31.52
2023-03-18T00:23:28.784Z,36.15
2023-03-18T00:25:57.731Z,30.23
2023-03-18T00:28:25.512Z,32.00
2023-03-18T00:30:54.518Z,31.42
2023-03-18T00:33:21.916Z,29.83
2023-03-18T00:35:50.142Z,30.75
2023-03-18T00:38:21.213Z,35.20
2023-03-18T00:41:00.646Z,33.75
2023-03-18T00:43:33.199Z,42.22
2023-03-18T00:46:01.575Z,31.80
2023-03-18T00:48:29.278Z,35.53
2023-03-18T00:50:57.123Z,35.92
2023-03-18T00:53:25.519Z,47.03
2023-03-18T00:55:53.242Z,39.58
2023-03-18T00:58:20.703Z,47.78
2023-03-18T01:00:48.306Z,42.05
2023-03-18T01:03:15.630Z,57.25
2023-03-18T01:05:43.392Z,48.33
2023-03-18T01:08:11.805Z,50.92
2023-03-18T01:10:39.000Z,44.60
2023-03-18T01:13:06.119Z,35.92
2023-03-18T01:15:34.144Z,57.60
2023-03-18T01:18:01.848Z,32.00
2023-03-18T01:20:29.774Z,43.72
2023-03-18T01:22:58.619Z,53.50
2023-03-18T01:25:28.153Z,44.42
2023-03-18T01:27:55.470Z,38.85
2023-03-18T01:30:23.296Z,45.03
2023-03-18T01:32:51.122Z,48.33
2023-03-18T01:35:19.670Z,49.33
2023-03-18T01:37:49.088Z,66.97
2023-03-18T01:40:17.436Z,55.38
2023-03-18T01:42:57.513Z,45.20
2023-03-18T01:47:59.660Z,35.58
2023-03-18T01:50:37.383Z,37.58
2023-03-18T01:53:11.943Z,34.65
2023-03-18T01:55:40.552Z,34.13
2023-03-18T01:58:17.943Z,47.17
2023-03-18T02:00:55.033Z,55.95
2023-03-18T02:03:22.270Z,49.63
2023-03-18T02:05:50.326Z,205.05
2023-03-18T02:08:18.273Z,54.55
2023-03-18T02:10:45.930Z,92.60
2023-03-18T02:13:15.874Z,60.08
2023-03-18T02:16:02.887Z,45.53
2023-03-18T02:21:38.960Z,60.53
2023-03-18T02:24:28.231Z,41.65
2023-03-18T02:27:28.649Z,44.33
2023-03-18T02:30:01.021Z,43.58
2023-03-18T02:32:35.131Z,43.88
2023-03-18T02:35:08.430Z,48.08
2023-03-18T02:37:38.667Z,42.58
2023-03-18T02:40:30.715Z,43.10
2023-03-18T02:43:23.679Z,53.10
2023-03-18T02:46:13.985Z,46.35
2023-03-18T02:48:44.849Z,70.30
2023-03-18T02:51:15.542Z,73.53
2023-03-18T02:53:44.849Z,77.68
2023-03-18T02:56:13.560Z,129.43
2023-03-18T03:01:11.674Z,320.38
2023-03-18T03:03:39.157Z,152.90
2023-03-18T03:06:08.201Z,65.88
2023-03-18T03:08:36.110Z,68.00
2023-03-18T03:11:05.436Z,91.05
2023-03-18T03:13:35.910Z,66.60
2023-03-18T03:16:03.475Z,67.18
2023-03-18T03:18:30.796Z,53.85
2023-03-18T03:20:58.340Z,47.17
2023-03-18T03:23:25.623Z,50.85
2023-03-18T03:25:52.867Z,58.85
2023-03-18T03:28:21.222Z,34.50
2023-03-18T03:30:48.885Z,32.55
2023-03-18T03:33:16.634Z,35.47
2023-03-18T03:35:43.992Z,31.70
2023-03-18T03:38:12.143Z,38.05
2023-03-18T03:40:40.267Z,40.28
2023-03-18T03:43:07.703Z,36.60
2023-03-18T03:45:34.892Z,32.75
2023-03-18T03:48:02.031Z,44.22
2023-03-18T03:50:29.805Z,42.25
2023-03-18T03:52:57.779Z,42.65
2023-03-18T03:57:55.882Z,34.60
2023-03-18T04:00:24.917Z,40.28
2023-03-18T04:02:53.535Z,30.00
2023-03-18T04:05:24.043Z,27.63
2023-03-18T04:07:52.892Z,30.08
2023-03-18T04:10:28.768Z,27.15
2023-03-18T04:12:56.057Z,33.03
2023-03-18T04:15:23.267Z,29.52
2023-03-18T04:17:54.118Z,23.90
2023-03-18T04:20:21.417Z,33.67
2023-03-18T04:22:49.208Z,25.08
2023-03-18T04:25:19.442Z,24.52
2023-03-18T04:27:48.472Z,32.65
2023-03-18T04:30:17.343Z,30.60
2023-03-18T04:32:55.994Z,27.27
2023-03-18T04:35:23.279Z,24.23
2023-03-18T04:37:52.021Z,28.67
2023-03-18T04:40:20.771Z,32.08
2023-03-18T04:42:48.022Z,35.20
2023-03-18T04:45:18.083Z,41.25
2023-03-18T04:47:45.778Z,35.55
2023-03-18T04:50:14.613Z,37.90
2023-03-18T04:52:44.541Z,38.13
2023-03-18T04:55:17.324Z,36.08
2023-03-18T04:57:45.184Z,28.85
2023-03-18T05:00:21.637Z,38.10
2023-03-18T05:02:52.664Z,39.38
2023-03-18T05:05:23.579Z,39.22
2023-03-18T05:07:52.129Z,41.17
2023-03-18T05:12:50.021Z,33.25
2023-03-18T05:15:25.425Z,28.42
2023-03-18T05:17:55.848Z,27.42
2023-03-18T05:20:23.301Z,31.85
2023-03-18T05:22:51.801Z,30.60
2023-03-18T05:25:31.216Z,33.38
2023-03-18T05:27:59.019Z,27.95
2023-03-18T05:30:36.499Z,32.05
2023-03-18T05:35:42.982Z,34.70
2023-03-18T05:38:10.360Z,57.38
2023-03-18T05:40:37.866Z,67.13
2023-03-18T05:43:16.158Z,45.90
2023-03-18T05:45:49.621Z,35.45
2023-03-18T05:48:19.375Z,35.75
2023-03-18T05:50:55.178Z,32.55
2023-03-18T05:53:26.177Z,36.00
2023-03-18T05:56:02.619Z,39.67
2023-03-18T05:58:32.130Z,44.10
2023-03-18T06:01:15.952Z,36.97
2023-03-18T06:03:43.920Z,44.75
2023-03-18T06:06:11.906Z,40.47
2023-03-18T06:08:40.682Z,47.08
2023-03-18T06:11:07.893Z,36.25
2023-03-18T06:13:35.313Z,52.30
2023-03-18T06:16:03.407Z,41.60
2023-03-18T06:18:31.319Z,41.15
2023-03-18T06:20:59.266Z,43.10
2023-03-18T06:23:27.000Z,42.33
2023-03-18T06:25:55.774Z,41.35
2023-03-18T06:28:29.567Z,33.90
2023-03-18T06:31:02.164Z,35.03
2023-03-18T06:33:30.055Z,38.42
2023-03-18T06:35:58.180Z,46.67
2023-03-18T06:38:26.749Z,43.92
2023-03-18T06:40:56.797Z,45.10
2023-03-18T06:43:24.126Z,42.15
2023-03-18T06:45:52.061Z,48.67
2023-03-18T06:48:19.808Z,45.13
2023-03-18T06:50:49.185Z,55.25
2023-03-18T06:53:23.701Z,57.85
2023-03-18T06:55:51.064Z,48.88
2023-03-18T06:58:21.785Z,51.72
2023-03-18T07:00:59.830Z,54.22
2023-03-18T07:03:32.335Z,51.22
2023-03-18T07:06:00.734Z,35.13
2023-03-18T07:08:28.752Z,33.03
2023-03-18T07:10:57.685Z,36.92
2023-03-18T07:13:26.210Z,37.75
2023-03-18T07:15:55.886Z,36.17
2023-03-18T07:18:24.324Z,34.33
2023-03-18T07:20:51.993Z,32.63
2023-03-18T07:23:21.358Z,39.25
2023-03-18T07:25:49.605Z,32.33
2023-03-18T07:28:19.859Z,36.47
2023-03-18T07:30:47.314Z,33.72
2023-03-18T07:33:15.304Z,26.77
2023-03-18T07:35:43.362Z,30.52
2023-03-18T07:38:12.206Z,32.05
2023-03-18T07:40:39.538Z,31.48
2023-03-18T07:43:06.895Z,30.52
2023-03-18T07:45:34.419Z,35.70
2023-03-18T07:48:01.715Z,35.45
2023-03-18T07:50:29.180Z,34.35
2023-03-18T07:52:56.517Z,35.47
2023-03-18T07:55:23.895Z,44.40
2023-03-18T07:57:51.463Z,38.05
2023-03-18T08:00:19.291Z,46.58
2023-03-18T08:02:46.491Z,42.75
2023-03-18T08:05:15.200Z,37.63
2023-03-18T08:07:43.064Z,37.63
2023-03-18T08:10:11.999Z,38.20
2023-03-18T08:12:52.140Z,36.75
2023-03-18T08:15:21.904Z,43.63
2023-03-18T08:17:50.665Z,46.53
2023-03-18T08:20:18.264Z,50.33
2023-03-18T08:22:46.126Z,52.10
2023-03-18T08:25:14.100Z,51.08
2023-03-18T08:27:41.813Z,58.85
2023-03-18T08:30:10.716Z,62.30
2023-03-18T08:32:37.913Z,69.68
2023-03-18T08:35:06.040Z,68.82
2023-03-18T08:37:33.348Z,74.43
2023-03-18T08:40:01.493Z,79.78
2023-03-18T08:42:28.906Z,67.85
2023-03-18T08:44:56.394Z,79.68
2023-03-18T08:47:24.642Z,69.93
2023-03-18T08:49:51.750Z,66.97
2023-03-18T08:52:19.354Z,57.47
2023-03-18T08:54:47.271Z,48.38
2023-03-18T08:57:15.441Z,49.58
2023-03-18T08:59:42.898Z,48.83
2023-03-18T09:02:17.907Z,48.15
2023-03-18T09:04:47.571Z,43.00
2023-03-18T09:07:16.891Z,39.42
2023-03-18T09:09:45.717Z,41.97
2023-03-18T09:12:13.720Z,41.15
2023-03-18T09:14:42.971Z,33.83
2023-03-18T09:17:10.253Z,33.25
2023-03-18T09:19:38.051Z,30.58
2023-03-18T09:22:05.376Z,33.50
2023-03-18T09:24:32.628Z,31.40
2023-03-18T09:26:59.858Z,30.42
2023-03-18T09:29:27.299Z,23.70
2023-03-18T09:31:55.002Z,30.30
2023-03-18T09:34:22.740Z,20.65
2023-03-18T09:36:53.042Z,23.48
2023-03-18T09:39:21.350Z,22.42
2023-03-18T09:42:35.749Z,22.60
2023-03-18T09:45:16.921Z,10.98
2023-03-18T09:48:02.784Z,11.65
2023-03-18T09:50:44.050Z,26.08
2023-03-18T09:53:29.002Z,18.10
2023-03-18T09:56:01.556Z,26.48
2023-03-18T09:58:44.150Z,25.90
2023-03-18T10:01:13.733Z,19.48
2023-03-18T10:06:23.551Z,13.93
2023-03-18T10:09:26.550Z,13.10
2023-03-18T10:12:23.267Z,15.48
2023-03-18T10:15:39.234Z,16.42
2023-03-18T10:18:37.628Z,15.07
2023-03-18T10:21:04.792Z,49.45
2023-03-18T10:23:41.267Z,16.70
2023-03-18T10:26:26.488Z,9.95
2023-03-18T10:30:01.084Z,9.85
2023-03-18T10:33:17.251Z,2.97
2023-03-18T10:35:59.385Z,20.13
2023-03-18T10:38:35.735Z,6.97
2023-03-18T10:41:28.897Z,2.17
2023-03-18T10:44:01.276Z,6.10
2023-03-18T10:46:28.751Z,11.25
2023-03-18T10:49:09.876Z,3.95
2023-03-18T10:51:53.984Z,6.45
2023-03-18T10:54:36.581Z,6.93
2023-03-18T10:57:04.147Z,4.68
2023-03-18T10:59:32.879Z,4.88
2023-03-18T11:02:13.856Z,6.00
2023-03-18T11:05:42.206Z,2.85
2023-03-18T11:08:34.449Z,6.22
2023-03-18T11:11:34.031Z,4.90
2023-03-18T11:16:44.463Z,5.93
2023-03-18T11:20:00.315Z,6.65
2023-03-18T11:22:29.007Z,6.65
2023-03-18T11:25:25.829Z,6.80
2023-03-18T11:28:03.294Z,5.40
2023-03-18T11:30:47.986Z,4.57
2023-03-18T11:33:17.142Z,4.40
2023-03-18T11:35:54.534Z,8.27
2023-03-18T11:38:28.116Z,10.88
2023-03-18T11:41:13.854Z,6.03
2023-03-18T11:44:02.810Z,6.10
2023-03-18T11:46:45.173Z,12.15
2023-03-18T11:49:22.247Z,12.80
2023-03-18T11:52:10.433Z,3.65
2023-03-18T11:55:13.531Z,5.10
2023-03-18T11:58:19.703Z,6.13
2023-03-18T12:01:11.041Z,4.10
2023-03-18T12:04:07.289Z,3.33
2023-03-18T12:07:13.096Z,4.05
2023-03-18T12:10:04.941Z,5.82
2023-03-18T12:12:47.047Z,3.60
2023-03-18T12:15:57.582Z,6.18
2023-03-18T12:19:06.348Z,5.20
2023-03-18T12:22:08.449Z,6.65
2023-03-18T12:24:56.710Z,8.70
2023-03-18T12:27:52.862Z,5.85
2023-03-18T12:30:44.090Z,6.30
2023-03-18T12:33:56.924Z,8.85
2023-03-18T12:37:01.134Z,4.18
2023-03-18T12:39:30.598Z,4.25
2023-03-18T12:42:14.511Z,3.58
2023-03-18T12:44:51.741Z,13.10
2023-03-18T12:47:36.586Z,22.70
2023-03-18T12:50:32.078Z,12.43
2023-03-18T12:53:36.158Z,5.53
2023-03-18T12:56:18.155Z,13.00
2023-03-18T12:59:21.438Z,11.90
2023-03-18T13:02:38.076Z,5.32
2023-03-18T13:05:26.942Z,11.27
2023-03-18T13:08:16.457Z,6.03
2023-03-18T13:10:49.631Z,7.03
2023-03-18T13:13:17.322Z,7.72
2023-03-18T13:15:50.978Z,4.53
2023-03-18T13:18:39.117Z,5.18
2023-03-18T13:21:08.397Z,6.50
2023-03-18T13:24:07.539Z,4.05
2023-03-18T13:27:28.182Z,6.22
2023-03-18T13:30:33.705Z,7.90
2023-03-18T13:33:47.053Z,2.20
2023-03-18T13:36:53.196Z,8.10
2023-03-18T13:39:58.193Z,7.40
2023-03-18T13:42:30.359Z,7.13
2023-03-18T13:45:21.865Z,3.70
2023-03-18T13:48:07.013Z,6.60
2023-03-18T13:50:39.467Z,5.38
2023-03-18T13:53:28.497Z,4.35
2023-03-18T13:55:55.674Z,3.55
2023-03-18T13:58:47.048Z,3.80
2023-03-18T14:01:28.676Z,6.45
2023-03-18T14:04:26.523Z,3.03
2023-03-18T14:07:30.800Z,11.98
2023-03-18T14:10:17.121Z,15.82
2023-03-18T14:12:49.356Z,5.22
2023-03-18T14:15:35.854Z,3.63
2023-03-18T14:18:03.828Z,9.50
2023-03-18T14:20:42.415Z,8.63
2023-03-18T14:23:42.161Z,5.03
2023-03-18T14:26:21.565Z,5.55
2023-03-18T14:31:39.380Z,4.60
2023-03-18T14:34:18.710Z,7.25
2023-03-18T14:36:51.969Z,12.43
2023-03-18T14:39:40.919Z,11.13
2023-03-18T14:42:31.238Z,10.80
2023-03-18T14:45:23.052Z,8.05
2023-03-18T14:47:58.998Z,6.18
2023-03-18T14:51:00.183Z,7.88
2023-03-18T14:53:52.172Z,6.45
2023-03-18T14:56:31.094Z,6.20
2023-03-18T14:58:58.363Z,17.45
2023-03-18T15:01:38.338Z,30.15
2023-03-18T15:04:10.957Z,7.38
2023-03-18T15:06:40.381Z,14.57
2023-03-18T15:09:20.536Z,7.78
2023-03-18T15:11:48.380Z,7.15
2023-03-18T15:14:31.445Z,10.15
2023-03-18T15:17:03.994Z,7.20
2023-03-18T15:19:32.085Z,9.48
2023-03-18T15:22:05.223Z,14.52
2023-03-18T15:24:33.108Z,10.73
2023-03-18T15:27:13.901Z,8.85
2023-03-18T15:29:58.588Z,12.93
2023-03-18T15:32:45.184Z,13.13
2023-03-18T15:35:24.070Z,14.70
2023-03-18T15:38:21.488Z,13.75
2023-03-18T15:40:57.623Z,8.70
2023-03-18T15:43:46.754Z,14.93
2023-03-18T15:46:27.942Z,40.70
2023-03-18T15:48:57.270Z,66.00
2023-03-18T15:51:43.126Z,46.03
2023-03-18T15:54:29.200Z,8.75
2023-03-18T15:56:58.677Z,22.45
2023-03-18T15:59:30.601Z,10.32
2023-03-18T16:01:59.086Z,8.18
2023-03-18T16:04:32.189Z,12.32
2023-03-18T16:06:59.664Z,18.30
2023-03-18T16:09:27.430Z,19.38
2023-03-18T16:12:03.325Z,13.15
2023-03-18T16:14:41.763Z,20.58
2023-03-18T16:17:21.063Z,7.40
2023-03-18T16:19:53.553Z,20.95
2023-03-18T16:22:21.426Z,16.80
2023-03-18T16:24:49.205Z,19.30
2023-03-18T16:27:38.846Z,14.35
2023-03-18T16:32:43.419Z,10.82
2023-03-18T16:35:15.660Z,9.13
2023-03-18T16:37:44.496Z,19.05
2023-03-18T16:40:25.079Z,19.48
2023-03-18T16:42:53.149Z,25.25
2023-03-18T16:45:33.082Z,10.25
2023-03-18T16:48:07.045Z,17.30
2023-03-18T16:50:37.905Z,18.40
2023-03-18T16:53:16.742Z,22.80
2023-03-18T16:55:46.563Z,44.28
2023-03-18T16:58:17.892Z,28.25
2023-03-18T17:00:49.066Z,52.45
2023-03-18T17:03:18.758Z,22.65
2023-03-18T17:08:19.159Z,20.38
2023-03-18T17:10:49.286Z,17.20
2023-03-18T17:13:28.038Z,17.35
2023-03-18T17:15:55.648Z,16.75
2023-03-18T17:18:24.632Z,32.08
2023-03-18T17:20:52.092Z,17.65
2023-03-18T17:23:27.303Z,14.70
2023-03-18T17:26:00.488Z,15.75
2023-03-18T17:28:38.654Z,21.13
2023-03-18T17:31:06.125Z,18.23
2023-03-18T17:33:36.537Z,23.95
2023-03-18T17:36:06.421Z,15.25
2023-03-18T17:38:34.664Z,13.27
2023-03-18T17:41:13.144Z,17.83
2023-03-18T17:43:41.523Z,44.53
2023-03-18T17:46:09.121Z,15.75
2023-03-18T17:48:37.843Z,20.48
2023-03-18T17:51:08.581Z,15.27
2023-03-18T17:53:43.451Z,9.55
2023-03-18T17:56:14.354Z,9.50
2023-03-18T17:58:47.627Z,13.68
2023-03-18T18:01:23.813Z,14.85
2023-03-18T18:03:51.619Z,13.45
2023-03-18T18:06:23.164Z,16.38
2023-03-18T18:08:51.246Z,11.68
2023-03-18T18:11:43.732Z,15.85
2023-03-18T18:14:28.439Z,8.77
2023-03-18T18:16:56.353Z,11.23
2023-03-18T18:19:24.087Z,8.95
2023-03-18T18:21:52.550Z,14.40
2023-03-18T18:24:27.691Z,16.45
2023-03-18T18:26:55.703Z,16.88
2023-03-18T18:29:27.685Z,18.33
2023-03-18T18:31:55.167Z,23.23
2023-03-18T18:34:22.610Z,16.05
2023-03-18T18:36:50.576Z,8.52
2023-03-18T18:39:18.613Z,13.15
2023-03-18T18:41:46.208Z,16.63
2023-03-18T18:44:14.183Z,19.60
2023-03-18T18:46:41.591Z,20.02
2023-03-18T18:49:23.607Z,19.27
2023-03-18T18:51:54.191Z,13.98
2023-03-18T18:54:23.560Z,16.88
2023-03-18T18:56:51.655Z,14.93
2023-03-18T18:59:28.177Z,23.85
2023-03-18T19:01:56.407Z,16.13
2023-03-18T19:04:24.364Z,20.15
2023-03-18T19:06:53.256Z,19.45
2023-03-18T19:09:24.075Z,14.98
2023-03-18T19:11:52.961Z,20.25
2023-03-18T19:14:25.229Z,36.88
2023-03-18T19:16:55.905Z,31.95
2023-03-18T19:19:31.911Z,27.45
2023-03-18T19:21:59.892Z,17.65
2023-03-18T19:24:32.575Z,24.65
2023-03-18T19:27:19.795Z,19.02
2023-03-18T19:29:47.248Z,17.38
2023-03-18T19:32:18.496Z,17.52
2023-03-18T19:34:51.184Z,16.55
2023-03-18T19:37:32.057Z,30.65
2023-03-18T19:40:01.672Z,19.38
2023-03-18T19:44:56.769Z,31.10
2023-03-18T19:47:29.446Z,16.65
2023-03-18T19:49:56.840Z,19.83
2023-03-18T19:52:26.827Z,18.60
2023-03-18T19:54:54.923Z,19.42
2023-03-18T19:57:31.191Z,20.73
2023-03-18T20:00:00.618Z,22.77
2023-03-18T20:02:31.453Z,22.65
2023-03-18T20:05:02.078Z,17.33
2023-03-18T20:07:32.126Z,32.30
2023-03-18T20:09:59.692Z,17.30
2023-03-18T20:12:42.757Z,18.30
2023-03-18T20:15:26.393Z,18.70
2023-03-18T20:17:54.531Z,20.67
2023-03-18T20:20:32.353Z,18.75
2023-03-18T20:23:04.549Z,18.55
2023-03-18T20:25:41.771Z,15.07
2023-03-18T20:28:19.783Z,17.65
2023-03-18T20:30:52.063Z,18.33
2023-03-18T20:33:21.995Z,14.23
2023-03-18T20:35:52.228Z,19.75
2023-03-18T20:38:39.164Z,26.23
2023-03-18T20:41:07.230Z,23.20
2023-03-18T20:43:34.532Z,18.17
2023-03-18T20:46:01.982Z,19.52
2023-03-18T20:48:29.735Z,20.13
2023-03-18T20:50:57.808Z,20.65
2023-03-18T20:53:28.348Z,17.45
2023-03-18T20:55:56.071Z,16.58
2023-03-18T20:58:26.871Z,21.88
2023-03-18T21:00:54.717Z,16.75
2023-03-18T21:03:31.399Z,16.48
2023-03-18T21:06:03.061Z,19.77
2023-03-18T21:08:32.471Z,15.40
2023-03-18T21:11:02.074Z,16.98
2023-03-18T21:13:38.058Z,22.17
2023-03-18T21:16:12.610Z,17.42
2023-03-18T21:18:41.610Z,14.50
2023-03-18T21:21:38.176Z,12.63
2023-03-18T21:24:26.400Z,28.98
2023-03-18T21:27:04.384Z,21.05
2023-03-18T21:29:32.888Z,26.53
2023-03-18T21:32:01.843Z,15.43
2023-03-18T21:34:29.037Z,14.05
2023-03-18T21:36:56.699Z,19.88
2023-03-18T21:39:23.930Z,12.07
2023-03-18T21:41:51.688Z,14.13
2023-03-18T21:44:18.821Z,19.15
2023-03-18T21:46:46.017Z,16.70
2023-03-18T21:49:13.320Z,14.23
2023-03-18T21:51:41.159Z,20.90
2023-03-18T21:54:26.647Z,18.33
2023-03-18T21:56:53.814Z,9.95
2023-03-18T21:59:21.027Z,17.40
2023-03-18T22:01:48.299Z,18.27
2023-03-18T22:04:15.711Z,13.88
2023-03-18T22:06:43.004Z,17.38
2023-03-18T22:09:10.149Z,20.27
2023-03-18T22:11:37.352Z,13.55
2023-03-18T22:14:04.546Z,12.77
2023-03-18T22:16:31.704Z,11.35
2023-03-18T22:18:58.862Z,8.60
2023-03-18T22:21:27.757Z,6.70
2023-03-18T22:23:57.468Z,5.25
2023-03-18T22:26:24.746Z,5.72
2023-03-18T22:28:51.802Z,9.15
2023-03-18T22:31:26.878Z,9.32
2023-03-18T22:33:54.825Z,15.15
2023-03-18T22:36:23.279Z,13.52
2023-03-18T22:38:50.602Z,10.23
2023-03-18T22:41:29.756Z,9.70
2023-03-18T22:43:59.233Z,10.07
2023-03-18T22:46:27.773Z,9.35
2023-03-18T22:48:55.161Z,9.10
2023-03-18T22:51:27.810Z,12.75
2023-03-18T22:53:55.487Z,9.38
2023-03-18T22:56:23.249Z,10.63
2023-03-18T22:58:50.978Z,7.93
2023-03-18T23:01:22.651Z,7.80
2023-03-18T23:03:49.959Z,9.40
2023-03-18T23:06:23.054Z,11.25
2023-03-18T23:08:50.273Z,7.95
2023-03-18T23:11:17.918Z,6.20
2023-03-18T23:13:51.606Z,8.85
2023-03-18T23:16:21.219Z,6.78
2023-03-18T23:18:49.360Z,7.05
2023-03-18T23:21:23.068Z,7.75
2023-03-18T23:23:51.815Z,7.93
2023-03-18T23:26:19.123Z,9.80
2023-03-18T23:28:46.446Z,9.60
2023-03-18T23:31:15.664Z,8.48
2023-03-18T23:33:43.657Z,11.23
2023-03-18T23:36:11.535Z,11.10
2023-03-18T23:38:38.900Z,12.88
2023-03-18T23:41:06.612Z,11.55
2023-03-18T23:43:33.773Z,10.98
2023-03-18T23:46:01.704Z,9.75
2023-03-18T23:48:29.134Z,10.15
2023-03-18T23:50:56.415Z,17.15
2023-03-18T23:53:23.690Z,8.68
2023-03-18T23:55:50.953Z,12.98
2023-03-18T23:58:18.202Z,11.48
